sensor_id;sensor_type;location;lat;lon;timestamp;P1;durP1;ratioP1;P2;durP2;ratioP2
60859;SDS011;46694;54.382;9.708;2022-10-30T00:00:46;88.17;;;35.50;;
60859;SDS011;46694;54.382;9.708;2022-10-30T00:03:26;71.20;;;33.50;;
60859;SDS011;46694;54.382;9.708;2022-10-30T00:06:06;67.43;;;32.80;;
60859;SDS011;46694;54.382;9.708;2022-10-30T00:08:45;73.67;;;34.27;;
60859;SDS011;46694;54.382;9.708;2022-10-30T00:11:25;68.50;;;34.80;;
60859;SDS011;46694;54.382;9.708;2022-10-30T00:14:07;66.17;;;34.23;;
60859;SDS011;46694;54.382;9.708;2022-10-30T00:16:47;72.13;;;32.70;;
60859;SDS011;46694;54.382;9.708;2022-10-30T00:19:26;75.80;;;33.30;;
60859;SDS011;46694;54.382;9.708;2022-10-30T00:22:06;74.83;;;33.00;;
60859;SDS011;46694;54.382;9.708;2022-10-30T00:24:59;56.57;;;31.13;;
60859;SDS011;46694;54.382;9.708;2022-10-30T00:27:39;56.17;;;28.77;;
60859;SDS011;46694;54.382;9.708;2022-10-30T00:30:18;61.87;;;30.77;;
60859;SDS011;46694;54.382;9.708;2022-10-30T00:32:58;58.73;;;29.50;;
60859;SDS011;46694;54.382;9.708;2022-10-30T00:35:37;65.27;;;27.63;;
60859;SDS011;46694;54.382;9.708;2022-10-30T00:38:17;43.77;;;26.13;;
60859;SDS011;46694;54.382;9.708;2022-10-30T00:40:56;59.10;;;29.77;;
60859;SDS011;46694;54.382;9.708;2022-10-30T00:43:37;43.73;;;27.47;;
60859;SDS011;46694;54.382;9.708;2022-10-30T00:46:20;51.67;;;29.53;;
60859;SDS011;46694;54.382;9.708;2022-10-30T00:49:11;53.03;;;30.10;;
60859;SDS011;46694;54.382;9.708;2022-10-30T00:51:54;47.47;;;26.20;;
60859;SDS011;46694;54.382;9.708;2022-10-30T00:54:34;51.30;;;26.60;;
60859;SDS011;46694;54.382;9.708;2022-10-30T00:57:14;56.10;;;32.83;;
60859;SDS011;46694;54.382;9.708;2022-10-30T00:59:54;64.20;;;29.80;;
60859;SDS011;46694;54.382;9.708;2022-10-30T01:02:33;53.47;;;29.23;;
60859;SDS011;46694;54.382;9.708;2022-10-30T01:05:14;46.10;;;28.53;;
60859;SDS011;46694;54.382;9.708;2022-10-30T01:07:56;58.53;;;31.03;;
60859;SDS011;46694;54.382;9.708;2022-10-30T01:10:36;57.40;;;29.80;;
60859;SDS011;46694;54.382;9.708;2022-10-30T01:13:16;58.00;;;28.03;;
60859;SDS011;46694;54.382;9.708;2022-10-30T01:18:53;56.53;;;28.23;;
60859;SDS011;46694;54.382;9.708;2022-10-30T01:22:11;62.33;;;29.50;;
60859;SDS011;46694;54.382;9.708;2022-10-30T01:28:11;56.73;;;29.37;;
60859;SDS011;46694;54.382;9.708;2022-10-30T01:31:42;60.53;;;31.40;;
60859;SDS011;46694;54.382;9.708;2022-10-30T01:40:27;54.67;;;30.97;;
60859;SDS011;46694;54.382;9.708;2022-10-30T01:43:07;63.23;;;30.63;;
60859;SDS011;46694;54.382;9.708;2022-10-30T01:55:18;73.47;;;35.60;;
60859;SDS011;46694;54.382;9.708;2022-10-30T01:58:19;65.87;;;35.20;;
60859;SDS011;46694;54.382;9.708;2022-10-30T02:01:08;66.30;;;35.93;;
60859;SDS011;46694;54.382;9.708;2022-10-30T02:03:49;66.07;;;34.00;;
60859;SDS011;46694;54.382;9.708;2022-10-30T02:06:29;65.87;;;35.87;;
60859;SDS011;46694;54.382;9.708;2022-10-30T02:09:08;61.67;;;32.60;;
60859;SDS011;46694;54.382;9.708;2022-10-30T02:11:48;61.47;;;34.90;;
60859;SDS011;46694;54.382;9.708;2022-10-30T02:14:30;69.30;;;34.70;;
60859;SDS011;46694;54.382;9.708;2022-10-30T02:17:15;70.83;;;35.20;;
60859;SDS011;46694;54.382;9.708;2022-10-30T02:19:55;77.37;;;36.27;;
60859;SDS011;46694;54.382;9.708;2022-10-30T02:22:35;62.73;;;32.73;;
60859;SDS011;46694;54.382;9.708;2022-10-30T02:25:14;57.60;;;33.30;;
60859;SDS011;46694;54.382;9.708;2022-10-30T02:27:54;58.13;;;34.33;;
60859;SDS011;46694;54.382;9.708;2022-10-30T02:30:34;61.70;;;34.53;;
60859;SDS011;46694;54.382;9.708;2022-10-30T02:33:13;57.43;;;33.60;;
60859;SDS011;46694;54.382;9.708;2022-10-30T02:35:53;57.73;;;34.30;;
60859;SDS011;46694;54.382;9.708;2022-10-30T02:38:32;67.70;;;35.53;;
60859;SDS011;46694;54.382;9.708;2022-10-30T02:41:12;61.40;;;35.70;;
60859;SDS011;46694;54.382;9.708;2022-10-30T02:43:51;69.23;;;35.43;;
60859;SDS011;46694;54.382;9.708;2022-10-30T02:46:32;67.70;;;36.97;;
60859;SDS011;46694;54.382;9.708;2022-10-30T02:49:12;56.93;;;33.07;;
60859;SDS011;46694;54.382;9.708;2022-10-30T02:51:51;63.33;;;32.93;;
60859;SDS011;46694;54.382;9.708;2022-10-30T02:54:31;55.83;;;32.53;;
60859;SDS011;46694;54.382;9.708;2022-10-30T02:57:10;55.87;;;33.80;;
60859;SDS011;46694;54.382;9.708;2022-10-30T02:59:50;64.60;;;33.00;;
60859;SDS011;46694;54.382;9.708;2022-10-30T03:02:29;59.93;;;29.83;;
60859;SDS011;46694;54.382;9.708;2022-10-30T03:05:09;48.70;;;28.80;;
60859;SDS011;46694;54.382;9.708;2022-10-30T03:07:48;46.23;;;28.77;;
60859;SDS011;46694;54.382;9.708;2022-10-30T03:10:29;40.43;;;26.10;;
60859;SDS011;46694;54.382;9.708;2022-10-30T03:13:08;38.80;;;27.13;;
60859;SDS011;46694;54.382;9.708;2022-10-30T03:15:47;42.03;;;28.40;;
60859;SDS011;46694;54.382;9.708;2022-10-30T03:18:27;44.40;;;28.23;;
60859;SDS011;46694;54.382;9.708;2022-10-30T03:21:07;59.13;;;30.80;;
60859;SDS011;46694;54.382;9.708;2022-10-30T03:23:50;52.83;;;31.17;;
60859;SDS011;46694;54.382;9.708;2022-10-30T03:26:31;54.07;;;29.43;;
60859;SDS011;46694;54.382;9.708;2022-10-30T03:29:10;97.40;;;30.03;;
60859;SDS011;46694;54.382;9.708;2022-10-30T03:31:50;89.17;;;32.43;;
60859;SDS011;46694;54.382;9.708;2022-10-30T03:34:29;143.03;;;35.47;;
60859;SDS011;46694;54.382;9.708;2022-10-30T03:37:09;47.13;;;31.30;;
60859;SDS011;46694;54.382;9.708;2022-10-30T03:39:49;53.33;;;31.70;;
60859;SDS011;46694;54.382;9.708;2022-10-30T03:42:28;61.77;;;32.17;;
60859;SDS011;46694;54.382;9.708;2022-10-30T03:45:08;118.23;;;34.90;;
60859;SDS011;46694;54.382;9.708;2022-10-30T03:47:47;50.70;;;32.13;;
60859;SDS011;46694;54.382;9.708;2022-10-30T03:50:27;63.50;;;31.03;;
60859;SDS011;46694;54.382;9.708;2022-10-30T03:53:07;48.57;;;30.40;;
60859;SDS011;46694;54.382;9.708;2022-10-30T03:55:47;64.47;;;33.20;;
60859;SDS011;46694;54.382;9.708;2022-10-30T03:58:27;48.70;;;32.33;;
60859;SDS011;46694;54.382;9.708;2022-10-30T04:01:08;54.47;;;33.30;;
60859;SDS011;46694;54.382;9.708;2022-10-30T04:03:48;50.43;;;32.40;;
60859;SDS011;46694;54.382;9.708;2022-10-30T04:06:27;87.33;;;32.87;;
60859;SDS011;46694;54.382;9.708;2022-10-30T04:09:07;228.20;;;34.17;;
60859;SDS011;46694;54.382;9.708;2022-10-30T04:11:47;208.73;;;34.63;;
60859;SDS011;46694;54.382;9.708;2022-10-30T04:14:26;98.67;;;32.37;;
60859;SDS011;46694;54.382;9.708;2022-10-30T04:17:06;149.63;;;34.23;;
60859;SDS011;46694;54.382;9.708;2022-10-30T04:19:45;120.83;;;33.30;;
60859;SDS011;46694;54.382;9.708;2022-10-30T04:22:25;366.17;;;39.43;;
60859;SDS011;46694;54.382;9.708;2022-10-30T04:25:05;424.47;;;39.90;;
60859;SDS011;46694;54.382;9.708;2022-10-30T04:27:44;188.97;;;36.90;;
60859;SDS011;46694;54.382;9.708;2022-10-30T04:30:24;397.20;;;40.53;;
60859;SDS011;46694;54.382;9.708;2022-10-30T04:33:05;470.73;;;42.50;;
60859;SDS011;46694;54.382;9.708;2022-10-30T04:35:48;191.03;;;34.13;;
60859;SDS011;46694;54.382;9.708;2022-10-30T04:38:28;323.77;;;37.20;;
60859;SDS011;46694;54.382;9.708;2022-10-30T04:41:07;41.90;;;29.90;;
60859;SDS011;46694;54.382;9.708;2022-10-30T04:43:48;53.33;;;28.83;;
60859;SDS011;46694;54.382;9.708;2022-10-30T04:46:28;59.33;;;29.80;;
60859;SDS011;46694;54.382;9.708;2022-10-30T04:49:07;40.97;;;28.60;;
60859;SDS011;46694;54.382;9.708;2022-10-30T04:51:47;33.40;;;26.40;;
60859;SDS011;46694;54.382;9.708;2022-10-30T04:54:27;77.27;;;28.67;;
60859;SDS011;46694;54.382;9.708;2022-10-30T04:57:06;37.23;;;26.70;;
60859;SDS011;46694;54.382;9.708;2022-10-30T04:59:46;86.50;;;27.20;;
60859;SDS011;46694;54.382;9.708;2022-10-30T05:02:26;36.07;;;26.30;;
60859;SDS011;46694;54.382;9.708;2022-10-30T05:05:05;128.60;;;29.93;;
60859;SDS011;46694;54.382;9.708;2022-10-30T05:07:46;48.87;;;26.90;;
60859;SDS011;46694;54.382;9.708;2022-10-30T05:10:26;58.10;;;26.47;;
60859;SDS011;46694;54.382;9.708;2022-10-30T05:13:07;82.77;;;26.83;;
60859;SDS011;46694;54.382;9.708;2022-10-30T05:15:49;383.27;;;33.80;;
60859;SDS011;46694;54.382;9.708;2022-10-30T05:18:28;39.57;;;24.57;;
60859;SDS011;46694;54.382;9.708;2022-10-30T05:21:08;30.73;;;23.70;;
60859;SDS011;46694;54.382;9.708;2022-10-30T05:23:47;26.80;;;22.10;;
60859;SDS011;46694;54.382;9.708;2022-10-30T05:26:27;29.27;;;22.83;;
60859;SDS011;46694;54.382;9.708;2022-10-30T05:29:07;27.57;;;22.23;;
60859;SDS011;46694;54.382;9.708;2022-10-30T05:31:46;30.00;;;23.37;;
60859;SDS011;46694;54.382;9.708;2022-10-30T05:34:26;32.00;;;24.23;;
60859;SDS011;46694;54.382;9.708;2022-10-30T05:37:06;30.47;;;23.70;;
60859;SDS011;46694;54.382;9.708;2022-10-30T05:39:45;57.57;;;28.73;;
60859;SDS011;46694;54.382;9.708;2022-10-30T05:42:25;36.17;;;24.60;;
60859;SDS011;46694;54.382;9.708;2022-10-30T05:45:04;42.83;;;25.30;;
60859;SDS011;46694;54.382;9.708;2022-10-30T05:47:55;47.03;;;25.20;;
60859;SDS011;46694;54.382;9.708;2022-10-30T05:50:39;36.33;;;24.20;;
60859;SDS011;46694;54.382;9.708;2022-10-30T05:53:19;125.43;;;26.30;;
60859;SDS011;46694;54.382;9.708;2022-10-30T05:55:59;40.43;;;24.67;;
60859;SDS011;46694;54.382;9.708;2022-10-30T05:58:38;173.33;;;26.70;;
60859;SDS011;46694;54.382;9.708;2022-10-30T06:01:18;53.23;;;24.00;;
60859;SDS011;46694;54.382;9.708;2022-10-30T06:03:57;63.83;;;26.70;;
60859;SDS011;46694;54.382;9.708;2022-10-30T06:06:37;43.07;;;26.60;;
60859;SDS011;46694;54.382;9.708;2022-10-30T06:09:17;130.67;;;30.40;;
60859;SDS011;46694;54.382;9.708;2022-10-30T06:11:56;36.23;;;25.80;;
60859;SDS011;46694;54.382;9.708;2022-10-30T06:14:36;30.70;;;22.37;;
60859;SDS011;46694;54.382;9.708;2022-10-30T06:17:16;35.97;;;24.57;;
60859;SDS011;46694;54.382;9.708;2022-10-30T06:19:55;50.77;;;23.00;;
60859;SDS011;46694;54.382;9.708;2022-10-30T06:22:35;35.13;;;23.93;;
60859;SDS011;46694;54.382;9.708;2022-10-30T06:25:14;31.70;;;22.27;;
60859;SDS011;46694;54.382;9.708;2022-10-30T06:27:54;33.80;;;21.17;;
60859;SDS011;46694;54.382;9.708;2022-10-30T06:30:34;34.10;;;22.20;;
60859;SDS011;46694;54.382;9.708;2022-10-30T06:33:13;47.67;;;24.20;;
60859;SDS011;46694;54.382;9.708;2022-10-30T06:35:53;32.13;;;22.10;;
60859;SDS011;46694;54.382;9.708;2022-10-30T06:38:33;35.40;;;23.30;;
60859;SDS011;46694;54.382;9.708;2022-10-30T06:41:12;37.03;;;22.03;;
60859;SDS011;46694;54.382;9.708;2022-10-30T06:43:52;45.27;;;22.87;;
60859;SDS011;46694;54.382;9.708;2022-10-30T06:46:31;43.80;;;22.70;;
60859;SDS011;46694;54.382;9.708;2022-10-30T06:49:11;30.40;;;22.50;;
60859;SDS011;46694;54.382;9.708;2022-10-30T06:51:51;42.07;;;24.80;;
60859;SDS011;46694;54.382;9.708;2022-10-30T06:54:30;32.93;;;20.90;;
60859;SDS011;46694;54.382;9.708;2022-10-30T06:57:10;33.27;;;21.47;;
60859;SDS011;46694;54.382;9.708;2022-10-30T06:59:51;50.87;;;22.30;;
60859;SDS011;46694;54.382;9.708;2022-10-30T07:02:31;38.20;;;24.20;;
60859;SDS011;46694;54.382;9.708;2022-10-30T07:05:12;34.70;;;22.97;;
60859;SDS011;46694;54.382;9.708;2022-10-30T07:07:51;35.40;;;21.60;;
60859;SDS011;46694;54.382;9.708;2022-10-30T07:10:34;38.83;;;22.37;;
60859;SDS011;46694;54.382;9.708;2022-10-30T07:13:14;43.60;;;22.30;;
60859;SDS011;46694;54.382;9.708;2022-10-30T07:15:53;44.27;;;22.93;;
60859;SDS011;46694;54.382;9.708;2022-10-30T07:18:33;41.60;;;22.33;;
60859;SDS011;46694;54.382;9.708;2022-10-30T07:21:12;51.67;;;22.20;;
60859;SDS011;46694;54.382;9.708;2022-10-30T07:23:52;33.87;;;22.40;;
60859;SDS011;46694;54.382;9.708;2022-10-30T07:26:32;31.73;;;21.03;;
60859;SDS011;46694;54.382;9.708;2022-10-30T07:29:15;40.93;;;21.40;;
60859;SDS011;46694;54.382;9.708;2022-10-30T07:31:56;38.93;;;21.70;;
60859;SDS011;46694;54.382;9.708;2022-10-30T07:34:35;40.77;;;23.67;;
60859;SDS011;46694;54.382;9.708;2022-10-30T07:37:15;40.23;;;20.60;;
60859;SDS011;46694;54.382;9.708;2022-10-30T07:39:55;38.03;;;21.30;;
60859;SDS011;46694;54.382;9.708;2022-10-30T07:42:34;35.83;;;20.90;;
60859;SDS011;46694;54.382;9.708;2022-10-30T07:45:14;34.60;;;20.47;;
60859;SDS011;46694;54.382;9.708;2022-10-30T07:47:54;33.33;;;19.80;;
60859;SDS011;46694;54.382;9.708;2022-10-30T07:50:33;36.97;;;19.23;;
60859;SDS011;46694;54.382;9.708;2022-10-30T07:53:13;43.10;;;19.60;;
60859;SDS011;46694;54.382;9.708;2022-10-30T07:55:53;31.40;;;18.27;;
60859;SDS011;46694;54.382;9.708;2022-10-30T07:58:33;30.77;;;17.67;;
60859;SDS011;46694;54.382;9.708;2022-10-30T08:01:13;33.50;;;18.00;;
60859;SDS011;46694;54.382;9.708;2022-10-30T08:03:52;35.87;;;16.47;;
60859;SDS011;46694;54.382;9.708;2022-10-30T08:06:32;42.73;;;16.80;;
60859;SDS011;46694;54.382;9.708;2022-10-30T08:09:11;24.13;;;16.80;;
60859;SDS011;46694;54.382;9.708;2022-10-30T08:11:51;31.37;;;16.30;;
60859;SDS011;46694;54.382;9.708;2022-10-30T08:14:31;20.60;;;15.30;;
60859;SDS011;46694;54.382;9.708;2022-10-30T08:17:12;36.60;;;17.07;;
60859;SDS011;46694;54.382;9.708;2022-10-30T08:19:51;23.83;;;14.73;;
60859;SDS011;46694;54.382;9.708;2022-10-30T08:22:31;24.03;;;15.93;;
60859;SDS011;46694;54.382;9.708;2022-10-30T08:25:11;26.37;;;15.97;;
60859;SDS011;46694;54.382;9.708;2022-10-30T08:27:52;22.80;;;16.50;;
60859;SDS011;46694;54.382;9.708;2022-10-30T08:30:40;36.60;;;18.17;;
60859;SDS011;46694;54.382;9.708;2022-10-30T08:33:19;32.40;;;17.83;;
60859;SDS011;46694;54.382;9.708;2022-10-30T08:35:59;28.83;;;17.10;;
60859;SDS011;46694;54.382;9.708;2022-10-30T08:38:40;28.53;;;16.83;;
60859;SDS011;46694;54.382;9.708;2022-10-30T08:41:19;32.20;;;17.97;;
60859;SDS011;46694;54.382;9.708;2022-10-30T08:43:58;32.93;;;16.93;;
60859;SDS011;46694;54.382;9.708;2022-10-30T08:46:38;31.93;;;16.77;;
60859;SDS011;46694;54.382;9.708;2022-10-30T08:49:18;35.07;;;18.43;;
60859;SDS011;46694;54.382;9.708;2022-10-30T08:51:57;32.37;;;16.17;;
60859;SDS011;46694;54.382;9.708;2022-10-30T08:54:37;29.03;;;17.13;;
60859;SDS011;46694;54.382;9.708;2022-10-30T08:57:17;49.03;;;17.77;;
60859;SDS011;46694;54.382;9.708;2022-10-30T08:59:56;33.73;;;16.73;;
60859;SDS011;46694;54.382;9.708;2022-10-30T09:02:36;33.60;;;17.07;;
60859;SDS011;46694;54.382;9.708;2022-10-30T09:05:19;35.43;;;15.77;;
60859;SDS011;46694;54.382;9.708;2022-10-30T09:07:59;26.30;;;15.80;;
60859;SDS011;46694;54.382;9.708;2022-10-30T09:10:39;31.10;;;16.30;;
60859;SDS011;46694;54.382;9.708;2022-10-30T09:13:18;32.60;;;16.03;;
60859;SDS011;46694;54.382;9.708;2022-10-30T09:15:58;24.27;;;15.20;;
60859;SDS011;46694;54.382;9.708;2022-10-30T09:18:40;27.87;;;15.60;;
60859;SDS011;46694;54.382;9.708;2022-10-30T09:21:20;33.90;;;15.40;;
60859;SDS011;46694;54.382;9.708;2022-10-30T09:23:59;26.07;;;15.03;;
60859;SDS011;46694;54.382;9.708;2022-10-30T09:26:39;23.97;;;15.70;;
60859;SDS011;46694;54.382;9.708;2022-10-30T09:29:18;28.73;;;15.50;;
60859;SDS011;46694;54.382;9.708;2022-10-30T09:31:58;29.83;;;14.27;;
60859;SDS011;46694;54.382;9.708;2022-10-30T09:34:38;31.50;;;14.60;;
60859;SDS011;46694;54.382;9.708;2022-10-30T09:37:18;33.00;;;15.70;;
60859;SDS011;46694;54.382;9.708;2022-10-30T09:39:58;31.20;;;15.50;;
60859;SDS011;46694;54.382;9.708;2022-10-30T09:42:44;23.47;;;14.90;;
60859;SDS011;46694;54.382;9.708;2022-10-30T09:45:47;22.50;;;14.03;;
60859;SDS011;46694;54.382;9.708;2022-10-30T09:48:53;37.30;;;14.67;;
60859;SDS011;46694;54.382;9.708;2022-10-30T09:58:34;27.03;;;15.60;;
60859;SDS011;46694;54.382;9.708;2022-10-30T10:04:41;33.63;;;14.67;;
60859;SDS011;46694;54.382;9.708;2022-10-30T10:07:26;24.23;;;14.30;;
60859;SDS011;46694;54.382;9.708;2022-10-30T10:10:18;25.63;;;15.20;;
60859;SDS011;46694;54.382;9.708;2022-10-30T10:16:20;24.30;;;14.37;;
60859;SDS011;46694;54.382;9.708;2022-10-30T10:25:18;37.40;;;14.40;;
60859;SDS011;46694;54.382;9.708;2022-10-30T10:36:50;35.60;;;14.83;;
60859;SDS011;46694;54.382;9.708;2022-10-30T10:48:46;31.07;;;14.73;;
60859;SDS011;46694;54.382;9.708;2022-10-30T10:52:09;24.40;;;15.20;;
60859;SDS011;46694;54.382;9.708;2022-10-30T10:55:05;31.07;;;13.90;;
60859;SDS011;46694;54.382;9.708;2022-10-30T10:57:56;28.73;;;14.20;;
60859;SDS011;46694;54.382;9.708;2022-10-30T11:00:50;28.67;;;15.47;;
60859;SDS011;46694;54.382;9.708;2022-10-30T11:03:33;36.47;;;17.60;;
60859;SDS011;46694;54.382;9.708;2022-10-30T11:06:32;35.70;;;15.73;;
60859;SDS011;46694;54.382;9.708;2022-10-30T11:09:20;32.30;;;16.53;;
60859;SDS011;46694;54.382;9.708;2022-10-30T11:12:02;33.17;;;17.10;;
60859;SDS011;46694;54.382;9.708;2022-10-30T11:14:42;40.30;;;16.43;;
60859;SDS011;46694;54.382;9.708;2022-10-30T11:17:34;26.07;;;15.90;;
60859;SDS011;46694;54.382;9.708;2022-10-30T11:20:22;36.70;;;16.30;;
60859;SDS011;46694;54.382;9.708;2022-10-30T11:29:09;38.90;;;16.67;;
60859;SDS011;46694;54.382;9.708;2022-10-30T11:32:02;31.10;;;16.03;;
60859;SDS011;46694;54.382;9.708;2022-10-30T11:34:43;37.47;;;16.30;;
60859;SDS011;46694;54.382;9.708;2022-10-30T11:37:30;32.37;;;17.20;;
60859;SDS011;46694;54.382;9.708;2022-10-30T11:45:36;27.90;;;16.40;;
60859;SDS011;46694;54.382;9.708;2022-10-30T11:48:23;33.60;;;17.30;;
60859;SDS011;46694;54.382;9.708;2022-10-30T11:51:07;40.87;;;15.97;;
60859;SDS011;46694;54.382;9.708;2022-10-30T11:53:48;28.53;;;15.23;;
60859;SDS011;46694;54.382;9.708;2022-10-30T11:56:28;32.77;;;15.87;;
60859;SDS011;46694;54.382;9.708;2022-10-30T11:59:13;31.83;;;15.70;;
60859;SDS011;46694;54.382;9.708;2022-10-30T12:02:16;33.47;;;17.20;;
60859;SDS011;46694;54.382;9.708;2022-10-30T12:05:31;32.67;;;18.20;;
60859;SDS011;46694;54.382;9.708;2022-10-30T12:08:18;39.17;;;15.93;;
60859;SDS011;46694;54.382;9.708;2022-10-30T12:11:00;31.43;;;14.60;;
60859;SDS011;46694;54.382;9.708;2022-10-30T12:13:42;30.00;;;16.87;;
60859;SDS011;46694;54.382;9.708;2022-10-30T12:16:22;49.47;;;17.30;;
60859;SDS011;46694;54.382;9.708;2022-10-30T12:19:03;26.70;;;15.20;;
60859;SDS011;46694;54.382;9.708;2022-10-30T12:21:48;41.50;;;18.10;;
60859;SDS011;46694;54.382;9.708;2022-10-30T12:24:31;34.13;;;16.83;;
60859;SDS011;46694;54.382;9.708;2022-10-30T12:27:15;29.27;;;17.37;;
60859;SDS011;46694;54.382;9.708;2022-10-30T12:30:00;32.80;;;15.70;;
60859;SDS011;46694;54.382;9.708;2022-10-30T12:32:58;35.20;;;15.80;;
60859;SDS011;46694;54.382;9.708;2022-10-30T12:35:54;38.70;;;18.20;;
60859;SDS011;46694;54.382;9.708;2022-10-30T12:41:30;38.23;;;17.10;;
60859;SDS011;46694;54.382;9.708;2022-10-30T12:44:29;40.07;;;18.20;;
60859;SDS011;46694;54.382;9.708;2022-10-30T12:47:53;37.80;;;17.17;;
60859;SDS011;46694;54.382;9.708;2022-10-30T12:51:06;33.23;;;16.67;;
60859;SDS011;46694;54.382;9.708;2022-10-30T12:54:07;31.03;;;17.33;;
60859;SDS011;46694;54.382;9.708;2022-10-30T12:57:07;29.40;;;17.50;;
60859;SDS011;46694;54.382;9.708;2022-10-30T13:00:24;44.70;;;16.70;;
60859;SDS011;46694;54.382;9.708;2022-10-30T13:03:22;32.73;;;17.03;;
60859;SDS011;46694;54.382;9.708;2022-10-30T13:06:19;29.47;;;15.47;;
60859;SDS011;46694;54.382;9.708;2022-10-30T13:09:24;35.30;;;17.00;;
60859;SDS011;46694;54.382;9.708;2022-10-30T13:12:37;27.30;;;14.90;;
60859;SDS011;46694;54.382;9.708;2022-10-30T13:15:29;28.63;;;16.57;;
60859;SDS011;46694;54.382;9.708;2022-10-30T13:18:16;28.63;;;15.50;;
60859;SDS011;46694;54.382;9.708;2022-10-30T13:26:59;32.67;;;14.93;;
60859;SDS011;46694;54.382;9.708;2022-10-30T13:39:02;33.70;;;17.13;;
60859;SDS011;46694;54.382;9.708;2022-10-30T13:48:06;33.90;;;15.20;;
60859;SDS011;46694;54.382;9.708;2022-10-30T13:54:52;19.63;;;14.03;;
60859;SDS011;46694;54.382;9.708;2022-10-30T13:57:51;30.90;;;15.53;;
60859;SDS011;46694;54.382;9.708;2022-10-30T14:00:58;34.83;;;16.13;;
60859;SDS011;46694;54.382;9.708;2022-10-30T14:13:43;38.23;;;13.87;;
60859;SDS011;46694;54.382;9.708;2022-10-30T14:19:21;40.03;;;13.70;;
60859;SDS011;46694;54.382;9.708;2022-10-30T14:22:01;37.63;;;14.27;;
60859;SDS011;46694;54.382;9.708;2022-10-30T14:24:44;36.83;;;14.93;;
60859;SDS011;46694;54.382;9.708;2022-10-30T14:27:30;31.10;;;13.97;;
60859;SDS011;46694;54.382;9.708;2022-10-30T14:30:17;31.17;;;12.83;;
60859;SDS011;46694;54.382;9.708;2022-10-30T14:32:57;25.97;;;13.73;;
60859;SDS011;46694;54.382;9.708;2022-10-30T14:35:38;22.83;;;13.30;;
60859;SDS011;46694;54.382;9.708;2022-10-30T14:38:22;32.87;;;13.90;;
60859;SDS011;46694;54.382;9.708;2022-10-30T14:41:04;30.30;;;13.57;;
60859;SDS011;46694;54.382;9.708;2022-10-30T14:56:44;41.00;;;16.67;;
60859;SDS011;46694;54.382;9.708;2022-10-30T14:59:32;29.80;;;15.93;;
60859;SDS011;46694;54.382;9.708;2022-10-30T15:23:15;33.43;;;17.03;;
60859;SDS011;46694;54.382;9.708;2022-10-30T15:26:16;44.67;;;16.50;;
60859;SDS011;46694;54.382;9.708;2022-10-30T15:29:01;32.00;;;15.50;;
60859;SDS011;46694;54.382;9.708;2022-10-30T15:31:42;40.63;;;16.73;;
60859;SDS011;46694;54.382;9.708;2022-10-30T15:34:21;30.47;;;16.70;;
60859;SDS011;46694;54.382;9.708;2022-10-30T15:37:09;41.03;;;15.47;;
60859;SDS011;46694;54.382;9.708;2022-10-30T15:40:07;34.60;;;15.10;;
60859;SDS011;46694;54.382;9.708;2022-10-30T15:42:48;49.50;;;16.00;;
60859;SDS011;46694;54.382;9.708;2022-10-30T15:45:37;22.80;;;14.00;;
60859;SDS011;46694;54.382;9.708;2022-10-30T15:48:26;29.93;;;14.90;;
60859;SDS011;46694;54.382;9.708;2022-10-30T15:51:12;30.47;;;15.93;;
60859;SDS011;46694;54.382;9.708;2022-10-30T15:53:56;27.27;;;15.70;;
60859;SDS011;46694;54.382;9.708;2022-10-30T15:56:42;34.93;;;16.23;;
60859;SDS011;46694;54.382;9.708;2022-10-30T15:59:27;35.13;;;17.20;;
60859;SDS011;46694;54.382;9.708;2022-10-30T16:02:21;33.67;;;15.30;;
60859;SDS011;46694;54.382;9.708;2022-10-30T16:05:18;33.20;;;17.00;;
60859;SDS011;46694;54.382;9.708;2022-10-30T16:08:00;40.87;;;16.70;;
60859;SDS011;46694;54.382;9.708;2022-10-30T16:10:41;41.47;;;19.00;;
60859;SDS011;46694;54.382;9.708;2022-10-30T16:13:32;45.90;;;20.20;;
60859;SDS011;46694;54.382;9.708;2022-10-30T16:16:16;46.17;;;18.83;;
60859;SDS011;46694;54.382;9.708;2022-10-30T16:19:07;71.63;;;20.60;;
60859;SDS011;46694;54.382;9.708;2022-10-30T16:21:56;66.17;;;21.57;;
60859;SDS011;46694;54.382;9.708;2022-10-30T16:24:36;71.77;;;22.13;;
60859;SDS011;46694;54.382;9.708;2022-10-30T16:27:19;61.57;;;20.27;;
60859;SDS011;46694;54.382;9.708;2022-10-30T16:30:00;40.77;;;18.10;;
60859;SDS011;46694;54.382;9.708;2022-10-30T16:32:40;38.77;;;19.00;;
60859;SDS011;46694;54.382;9.708;2022-10-30T16:35:29;42.60;;;20.83;;
60859;SDS011;46694;54.382;9.708;2022-10-30T16:38:09;40.80;;;18.57;;
60859;SDS011;46694;54.382;9.708;2022-10-30T16:40:50;31.07;;;17.60;;
60859;SDS011;46694;54.382;9.708;2022-10-30T16:43:31;27.33;;;16.33;;
60859;SDS011;46694;54.382;9.708;2022-10-30T16:48:55;31.47;;;18.67;;
60859;SDS011;46694;54.382;9.708;2022-10-30T16:51:38;35.53;;;17.00;;
60859;SDS011;46694;54.382;9.708;2022-10-30T16:54:18;32.33;;;17.30;;
60859;SDS011;46694;54.382;9.708;2022-10-30T16:57:03;29.83;;;18.03;;
60859;SDS011;46694;54.382;9.708;2022-10-30T16:59:54;32.70;;;17.90;;
60859;SDS011;46694;54.382;9.708;2022-10-30T17:02:35;31.60;;;17.23;;
60859;SDS011;46694;54.382;9.708;2022-10-30T17:05:26;41.53;;;17.30;;
60859;SDS011;46694;54.382;9.708;2022-10-30T17:11:43;48.83;;;22.80;;
60859;SDS011;46694;54.382;9.708;2022-10-30T17:14:24;41.00;;;22.13;;
60859;SDS011;46694;54.382;9.708;2022-10-30T17:17:11;43.97;;;21.20;;
60859;SDS011;46694;54.382;9.708;2022-10-30T17:23:05;41.63;;;19.80;;
60859;SDS011;46694;54.382;9.708;2022-10-30T17:25:53;39.90;;;21.00;;
60859;SDS011;46694;54.382;9.708;2022-10-30T17:28:34;38.13;;;18.70;;
60859;SDS011;46694;54.382;9.708;2022-10-30T17:34:20;39.73;;;19.60;;
60859;SDS011;46694;54.382;9.708;2022-10-30T17:36:59;46.13;;;20.03;;
60859;SDS011;46694;54.382;9.708;2022-10-30T17:39:39;41.20;;;20.73;;
60859;SDS011;46694;54.382;9.708;2022-10-30T17:42:19;38.53;;;18.77;;
60859;SDS011;46694;54.382;9.708;2022-10-30T17:44:58;33.40;;;18.63;;
60859;SDS011;46694;54.382;9.708;2022-10-30T17:47:38;27.33;;;17.87;;
60859;SDS011;46694;54.382;9.708;2022-10-30T17:50:17;29.63;;;18.17;;
60859;SDS011;46694;54.382;9.708;2022-10-30T17:52:57;33.87;;;19.87;;
60859;SDS011;46694;54.382;9.708;2022-10-30T17:55:37;32.97;;;19.63;;
60859;SDS011;46694;54.382;9.708;2022-10-30T17:58:17;33.53;;;19.63;;
60859;SDS011;46694;54.382;9.708;2022-10-30T18:00:57;32.47;;;18.80;;
60859;SDS011;46694;54.382;9.708;2022-10-30T18:03:37;30.17;;;20.07;;
60859;SDS011;46694;54.382;9.708;2022-10-30T18:06:18;34.10;;;19.40;;
60859;SDS011;46694;54.382;9.708;2022-10-30T18:09:01;33.87;;;19.40;;
60859;SDS011;46694;54.382;9.708;2022-10-30T18:11:41;27.47;;;19.87;;
60859;SDS011;46694;54.382;9.708;2022-10-30T18:18:13;35.20;;;19.70;;
60859;SDS011;46694;54.382;9.708;2022-10-30T18:20:53;45.53;;;22.73;;
60859;SDS011;46694;54.382;9.708;2022-10-30T18:23:32;46.67;;;22.40;;
60859;SDS011;46694;54.382;9.708;2022-10-30T18:26:13;39.70;;;19.90;;
60859;SDS011;46694;54.382;9.708;2022-10-30T18:28:55;40.73;;;20.23;;
60859;SDS011;46694;54.382;9.708;2022-10-30T18:31:35;41.87;;;21.27;;
60859;SDS011;46694;54.382;9.708;2022-10-30T18:34:17;48.40;;;22.63;;
60859;SDS011;46694;54.382;9.708;2022-10-30T18:37:00;33.13;;;20.03;;